Flight Track Log - Related Links

Times and Time Zones

All times are in EDT time to prevent confusion due to time zone crossing. See the N789EX flight status page for this flight to view local times or setup timezone preferences in your user account.

Time Position Orientation Groundspeed Altitude Reporting Facility
EDT Latitude Longitude Course Direction KTS MPH feet Rate Location/Type
Fri 03:19:00 PM 47.5646 -122.3330 326° Northwest 201 231 1,400  Level FlightAware ADS-B
Fri 03:19:15 PM 47.5767 -122.3450 326° Northwest 214 246 1,800 1,600 Climbing FlightAware ADS-B
Fri 03:19:30 PM 47.5896 -122.3580 327° Northwest 231 266 2,200 1,655 Climbing FlightAware ADS-B
Fri 03:19:44 PM 47.6024 -122.3700 326° Northwest 246 283 2,600 2,000 Climbing FlightAware ADS-B
Fri 03:19:48 PM 47.6064 -122.3750 321° Northwest 250 288 2,800 2,000 Climbing FlightAware ADS-B
Fri 03:19:53 PM 47.6101 -122.3800 311° West 254 292 2,900 2,250 Climbing FlightAware ADS-B
Fri 03:19:56 PM 47.6125 -122.3860 305° West 256 295 3,100 2,571 Climbing FlightAware ADS-B
Fri 03:20:00 PM 47.6147 -122.3910 297° West 257 296 3,200 2,667 Climbing FlightAware ADS-B
Fri 03:20:05 PM 47.6167 -122.3990 291° West 257 296 3,500 3,429 Climbing FlightAware ADS-B
Fri 03:20:14 PM 47.6200 -122.4140 286° West 257 296 4,000 3,300 Climbing FlightAware ADS-B
Fri 03:20:25 PM 47.6235 -122.4340 285° West 252 290 4,600 3,111 Climbing FlightAware ADS-B
Fri 03:20:41 PM 47.6283 -122.4590 286° West 251 289 5,400 2,897 Climbing FlightAware ADS-B
Fri 03:20:54 PM 47.6325 -122.4810 285° West 255 293 6,000 3,000 Climbing FlightAware ADS-B
Fri 03:21:09 PM 47.6372 -122.5070 285° West 257 296 6,800 3,143 Climbing FlightAware ADS-B
Fri 03:21:15 PM 47.6390 -122.5170 284° West 259 298 7,100 3,000 Climbing FlightAware ADS-B
Fri 03:21:19 PM 47.6400 -122.5250 281° West 259 298 7,300 2,000 Climbing FlightAware ADS-B
Fri 03:21:24 PM 47.6404 -122.5320 272° West 262 302 7,400 2,250 Climbing FlightAware ADS-B
Fri 03:21:27 PM 47.6403 -122.5380 266° West 264 304 7,600 3,000 Climbing FlightAware ADS-B
Fri 03:21:32 PM 47.6389 -122.5480 253° West 267 307 7,800 2,667 Climbing FlightAware ADS-B
Fri 03:21:36 PM 47.6372 -122.5550 247° West 269 310 8,000 2,727 Climbing FlightAware ADS-B
Fri 03:21:43 PM 47.6326 -122.5650 235° Southwest 272 313 8,300 3,000 Climbing FlightAware ADS-B
Fri 03:21:46 PM 47.6296 -122.5700 229° Southwest 274 315 8,500 2,727 Climbing FlightAware ADS-B
Fri 03:21:54 PM 47.6231 -122.5793 227° Southwest 275 316 8,800 3,000 Climbing FlightAware ADS-B (CYVR)
Fri 03:22:00 PM 47.6170 -122.5880 222° Southwest 275 316 9,200 3,000 Climbing FlightAware ADS-B
Fri 03:22:18 PM 47.6000 -122.6100 222° Southwest 278 320 10,000 2,118 Climbing FlightAware ADS-B
Fri 03:22:34 PM 47.5842 -122.6310 221° Southwest 293 337 10,400 1,241 Climbing FlightAware ADS-B
Fri 03:22:47 PM 47.5701 -122.6490 221° Southwest 310 357 10,600 973 Climbing FlightAware ADS-B
Fri 03:23:11 PM 47.5434 -122.6840 221° Southwest 335 386 11,000 1,161 Climbing FlightAware ADS-B (CYVR)
Fri 03:23:18 PM 47.5356 -122.6940 221° Southwest 340 391 11,200 1,273 Climbing FlightAware ADS-B
Fri 03:23:44 PM 47.5085 -122.7289 221° Southwest 365 420 11,700 1,200 Climbing FlightAware ADS-B
Fri 03:23:48 PM 47.4980 -122.7430 221° Southwest 368 423 11,800 1,800 Climbing FlightAware ADS-B
Fri 03:24:14 PM 47.4774 -122.7691 221° Southwest 381 438 12,600 1,800 Climbing FlightAware ADS-B
Fri 03:24:18 PM 47.4580 -122.7940 221° Southwest 382 440 12,700 2,400 Climbing FlightAware ADS-B
Fri 03:24:44 PM 47.4281 -122.8314 220° Southwest 387 445 13,800 2,516 Climbing FlightAware ADS-B
Fri 03:24:49 PM 47.4166 -122.8460 220° Southwest 388 447 14,000 2,200 Climbing FlightAware ADS-B
Fri 03:25:14 PM 47.3823 -122.8876 219° Southwest 396 456 14,900 2,000 Climbing FlightAware ADS-B
Fri 03:25:19 PM 47.3740 -122.8970 219° Southwest 397 457 15,000 2,057 Climbing FlightAware ADS-B
Fri 03:25:49 PM 47.3305 -122.9490 218° Southwest 405 466 16,100 2,262 Climbing FlightAware ADS-B
Fri 03:26:20 PM 47.2866 -123.0010 219° Southwest 404 465 17,300 2,229 Climbing FlightAware ADS-B
Fri 03:26:24 PM 47.2817 -123.0069 220° Southwest 404 465 17,400 1,895 Climbing FlightAware ADS-B
Fri 03:26:39 PM 47.2590 -123.0350 221° Southwest 406 467 17,900 2,000 Climbing FlightAware ADS-B
Fri 03:26:42 PM 47.2545 -123.0410 225° Southwest 403 464 18,000 1,800 Climbing FlightAware ADS-B
Fri 03:26:49 PM 47.2461 -123.0570 235° Southwest 397 457 18,200 1,667 Climbing FlightAware ADS-B
Fri 03:27:00 PM 47.2367 -123.0800 242° Southwest 393 452 18,500 1,800 Climbing FlightAware ADS-B
Fri 03:27:19 PM 47.2254 -123.1163 248° West 392 451 19,100 2,200 Climbing FlightAware ADS-B (CYVR)
Fri 03:27:30 PM 47.2150 -123.1540 249° West 389 448 19,600 2,364 Climbing FlightAware ADS-B
Fri 03:27:52 PM 47.2010 -123.2090 250° West 388 447 20,400 2,438 Climbing FlightAware ADS-B (CYVR)
Fri 03:28:02 PM 47.1949 -123.2330 250° West 386 444 20,900 3,600 Climbing FlightAware ADS-B
Fri 03:28:22 PM 47.1845 -123.2739 249° West 365 420 22,200 4,258 Climbing FlightAware ADS-B (CYVR)
Fri 03:28:33 PM 47.1758 -123.3070 248° West 357 411 23,100 3,400 Climbing FlightAware ADS-B
Fri 03:28:52 PM 47.1654 -123.3454 249° West 352 405 23,900 2,323 Climbing FlightAware ADS-B (CYVR)
Fri 03:29:04 PM 47.1577 -123.3740 249° West 351 404 24,300 1,800 Climbing FlightAware ADS-B
Fri 03:29:22 PM 47.1474 -123.4130 249° West 353 406 24,800 1,500 Climbing FlightAware ADS-B (CYVR)
Fri 03:29:36 PM 47.1384 -123.4470 249° West 356 410 25,100 1,429 Climbing FlightAware ADS-B
Fri 03:29:43 PM 47.1344 -123.4618 249° West 358 412 25,300 1,355 Climbing FlightAware ADS-B
Fri 03:30:07 PM 47.1198 -123.5160 248° West 361 415 25,800 1,400 Climbing FlightAware ADS-B
Fri 03:30:13 PM 47.1160 -123.5299 248° West 363 418 26,000 1,400 Climbing FlightAware ADS-B (CYVR)
Fri 03:30:37 PM 47.1011 -123.5850 248° West 366 421 26,500 1,385 Climbing FlightAware ADS-B
Fri 03:30:52 PM 47.0928 -123.6150 248° West 368 423 26,900 1,400 Climbing FlightAware ADS-B (CYVR)
Fri 03:31:07 PM 47.0818 -123.6560 248° West 370 426 27,200 1,317 Climbing FlightAware ADS-B
Fri 03:31:33 PM 47.0678 -123.7078 249° West 373 429 27,800 1,273 Climbing FlightAware ADS-B (CYVR)
Fri 03:31:40 PM 47.0610 -123.7330 248° West 373 429 27,900 1,135 Climbing FlightAware ADS-B
Fri 03:32:10 PM 47.0415 -123.8040 248° West 379 436 28,500 1,091 Climbing FlightAware ADS-B
Fri 03:32:13 PM 47.0409 -123.8067 248° West 380 437 28,500 968 Level FlightAware ADS-B (CYVR)
Fri 03:32:41 PM 47.0220 -123.8760 248° West 384 442 29,000 1,077 Climbing FlightAware ADS-B
Fri 03:32:52 PM 47.0169 -123.8952 248° West 386 444 29,200 1,000 Climbing FlightAware ADS-B (CYVR)
Fri 03:33:11 PM 47.0018 -123.9500 248° West 389 448 29,500 1,000 Climbing FlightAware ADS-B
Fri 03:33:22 PM 46.9965 -123.9697 248° West 391 450 29,700 938 Climbing FlightAware ADS-B (CYVR)
Fri 03:33:43 PM 46.9802 -124.0290 248° West 393 452 30,000 857 Climbing FlightAware ADS-B
Fri 03:33:50 PM 46.9750 -124.0470 246° West 396 456 30,100 923 Climbing FlightAware ADS-B
Fri 03:33:56 PM 46.9706 -124.0590 241° Southwest 399 459 30,200 1,000 Climbing FlightAware ADS-B
Fri 03:34:02 PM 46.9639 -124.0740 235° Southwest 405 466 30,300 1,000 Climbing FlightAware ADS-B
Fri 03:34:08 PM 46.9576 -124.0860 230° Southwest 409 471 30,400 600 Climbing FlightAware ADS-B
Fri 03:34:12 PM 46.9965 -123.9697 226° Southwest 413 475 30,400 1,000 Level FlightAware ADS-B (CYVR)
Fri 03:34:14 PM 46.9495 -124.0980 225° Southwest 414 476 30,500 857 Climbing FlightAware ADS-B
Fri 03:34:19 PM 46.9421 -124.1080 221° Southwest 418 481 30,500 800 Level FlightAware ADS-B
Fri 03:34:29 PM 46.9262 -124.1250 212° Southwest 426 490 30,700 1,043 Climbing FlightAware ADS-B
Fri 03:34:42 PM 46.9023 -124.1410 201° Southwest 437 503 30,900 750 Climbing FlightAware ADS-B
Fri 03:34:45 PM 46.9061 -124.1392 199° South 440 506 30,900 750 Level FlightAware ADS-B
Fri 03:34:50 PM 46.8869 -124.1470 193° South 446 513 31,000 1,200 Climbing FlightAware ADS-B
Fri 03:34:55 PM 46.8758 -124.1500 189° South 451 519 31,100 857 Climbing FlightAware ADS-B
Fri 03:35:04 PM 46.8565 -124.1520 181° South 459 528 31,200 600 Climbing FlightAware ADS-B
Fri 03:35:05 PM 46.8577 -124.1517 181° South 459 528 31,200 774 Level FlightAware ADS-B
Fri 03:35:35 PM 46.7916 -124.1520 180° South 464 534 31,600 750 Climbing FlightAware ADS-B
Fri 03:35:45 PM 46.7959 -124.1524 181° South 465 535 31,700 600 Climbing FlightAware ADS-B
Fri 03:36:05 PM 46.7264 -124.1530 181° South 470 541 31,900 450 Climbing FlightAware ADS-B
Fri 03:36:25 PM 46.6989 -124.1539 181° South 475 547 32,000 400 Climbing FlightAware ADS-B
Fri 03:36:35 PM 46.6601 -124.1550 181° South 479 551 32,100 450 Climbing FlightAware ADS-B
Fri 03:37:05 PM 46.6025 -124.1557 181° South 486 559 32,300 689 Climbing FlightAware ADS-B
Fri 03:37:36 PM 46.5251 -124.1570 181° South 486 559 32,800 1,100 Climbing FlightAware ADS-B
Fri 03:38:05 PM 46.4678 -124.1583 181° South 483 556 33,400 1,400 Climbing FlightAware ADS-B
Fri 03:38:06 PM 46.4580 -124.1580 181° South 483 556 33,500 1,355 Climbing FlightAware ADS-B
Fri 03:38:36 PM 46.3894 -124.1600 181° South 481 554 34,100 1,077 Climbing FlightAware ADS-B
Fri 03:38:45 PM 46.3783 -124.1600 181° South 480 552 34,200 1,161 Climbing FlightAware ADS-B
Fri 03:39:07 PM 46.3226 -124.1610 181° South 477 549 34,700 1,200 Climbing FlightAware ADS-B
Fri 03:39:25 PM 46.2857 -124.1618 181° South 476 548 35,000 800 Climbing FlightAware ADS-B
Fri 03:39:37 PM 46.2558 -124.1620 181° South 475 547 35,100 600 Climbing FlightAware ADS-B
Fri 03:40:05 PM 46.2058 -124.1635 181° South 475 547 35,400 800 Climbing FlightAware ADS-B
Fri 03:40:07 PM 46.1896 -124.1640 181° South 475 547 35,500 1,688 Climbing FlightAware ADS-B
Fri 03:40:37 PM 46.1243 -124.1650 181° South 464 534 36,300 1,263 Climbing FlightAware ADS-B
Fri 03:40:45 PM 46.1329 -124.1649 181° South 462 532 36,300 1,235 Level FlightAware ADS-B
Fri 03:41:11 PM 46.0520 -124.1660 181° South 455 524 37,000 1,050 Climbing FlightAware ADS-B
Fri 03:41:25 PM 46.0280 -124.1667 181° South 455 524 37,000  Level FlightAware ADS-B
Fri 03:41:42 PM 45.9885 -124.1680 181° South 454 522 37,000  Level FlightAware ADS-B
Fri 03:42:05 PM 45.9500 -124.1684 181° South 453 521 37,000  Level FlightAware ADS-B
Fri 03:42:12 PM 45.9252 -124.1690 181° South 453 521 37,000  Level FlightAware ADS-B
Fri 03:42:42 PM 45.8613 -124.1700 181° South 452 520 37,000  Level FlightAware ADS-B
Fri 03:42:45 PM 45.8872 -124.1696 181° South 452 520 37,000  Level FlightAware ADS-B
Fri 03:43:12 PM 45.7986 -124.1710 181° South 453 521 37,000  Level FlightAware ADS-B
Fri 03:43:25 PM 45.7844 -124.1715 181° South 454 522 37,000  Level FlightAware ADS-B
Fri 03:43:43 PM 45.7335 -124.1720 181° South 456 525 37,000  Level FlightAware ADS-B
Fri 03:44:05 PM 45.6969 -124.1730 181° South 456 525 37,000 -194 Level FlightAware ADS-B
Fri 03:44:14 PM 45.6696 -124.1730 181° South 451 519 36,900 -1,692 Descending FlightAware ADS-B
Fri 03:44:44 PM 45.6074 -124.1740 181° South 442 509 35,900 -1,935 Descending FlightAware ADS-B
Fri 03:44:45 PM 45.6135 -124.1742 181° South 442 509 35,900 -1,355 Level FlightAware ADS-B
Fri 03:45:15 PM 45.5449 -124.1760 181° South 442 509 35,200 -700 Descending FlightAware ADS-B
Fri 03:45:45 PM 45.4861 -124.1770 181° South 439 505 35,200  Level FlightAware ADS-B
Fri 03:46:15 PM 45.4217 -124.1780 181° South 444 511 35,200  Level FlightAware ADS-B
Fri 03:46:25 PM 45.4118 -124.1784 181° South 445 512 35,200  Level FlightAware ADS-B
Fri 03:46:45 PM 45.3599 -124.1790 181° South 447 514 35,200 -150 Level FlightAware ADS-B
Fri 03:47:05 PM 45.3355 -124.1796 181° South 448 516 35,100 -774 Descending FlightAware ADS-B
Fri 03:47:16 PM 45.2967 -124.1800 181° South 445 512 34,800 -1,650 Descending FlightAware ADS-B
Fri 03:47:45 PM 45.2558 -124.1810 181° South 440 506 34,000 -1,742 Descending FlightAware ADS-B
Fri 03:47:47 PM 45.2338 -124.1810 181° South 440 506 33,900 -2,250 Descending FlightAware ADS-B
Fri 03:48:17 PM 45.1726 -124.1830 181° South 437 503 32,800 -2,900 Descending FlightAware ADS-B
Fri 03:48:47 PM 45.1108 -124.1840 181° South 450 518 31,000 -3,000 Descending FlightAware ADS-B
Fri 03:49:01 PM 45.1149 -124.1836 181° South 444 511 30,600 -3,290 Descending FlightAware ADS-B
Fri 03:49:18 PM 45.0452 -124.1850 181° South 461 531 29,300 -3,000 Descending FlightAware ADS-B
Fri 03:49:45 PM 44.9909 -124.1859 181° South 455 524 28,400 -1,846 Descending FlightAware ADS-B
Fri 03:49:57 PM 44.9621 -124.1860 181° South 461 531 28,100 -600 Descending FlightAware ADS-B
Fri 03:50:25 PM 44.9317 -124.1869 181° South 455 524 28,000 -130 Descending FlightAware ADS-B
Fri 03:50:43 PM 44.8670 -124.1880 181° South 455 524 28,000  Level FlightAware ADS-B
Fri 03:51:26 PM 44.7756 -124.1900 181° South 455 524 28,000  Level FlightAware ADS-B
Fri 03:51:45 PM 44.7406 -124.1904 181° South 455 524 28,000  Level FlightAware ADS-B
Fri 03:52:08 PM 44.6864 -124.1910 181° South 452 520 28,000 -1,050 Level FlightAware ADS-B
Fri 03:52:25 PM 44.6575 -124.1919 181° South 445 512 27,300 -3,750 Descending FlightAware ADS-B
Fri 03:52:56 PM 44.5896 -124.1930 181° South 452 520 25,000 -4,700 Descending FlightAware ADS-B
Fri 03:53:25 PM 44.5733 -124.1934 181° South 441 507 22,600 -4,957 Descending FlightAware ADS-B
Fri 03:54:05 PM 44.4537 -124.1955 181° South 429 494 19,300 -4,000 Descending FlightAware ADS-B
Fri 03:54:46 PM 44.3828 -124.1968 181° South 420 483 17,200 -2,000 Descending FlightAware ADS-B
Fri 03:55:20 PM 44.3283 -124.1997 181° South 418 481 16,800 -2,779 Descending Seattle Center
Fri 03:56:21 PM 44.2058 -124.2022 181° South 371 427 12,800 -3,268 Descending Seattle Center
Fri 03:57:23 PM 44.1094 -124.2028 180° South 357 411 10,100 -1,659 Descending Seattle Center
Fri 03:58:24 PM 44.0225 -124.2053 181° South 322 371 9,400 -541 Descending Seattle Center
Fri 03:59:25 PM 43.9539 -124.2347 197° South 251 289 9,000 -197 Descending Seattle Center
Fri 04:00:26 PM 43.8792 -124.2619 195° South 265 305 9,000 295 Level Seattle Center
Fri 04:01:27 PM 43.8058 -124.2933 197° South 269 310 9,600  Climbing Seattle Center
Fri 04:02:28 PM 43.7447 -124.3164 195° South 260 299 9,000 -295 Descending Seattle Center
Fri 04:03:29 PM 43.6756 -124.3411 194° South 257 296 9,000 98 Level Seattle Center
Fri 04:04:30 PM 43.6031 -124.3717 197° South 264 304 9,200 295 Climbing Seattle Center
Fri 04:05:31 PM 43.5336 -124.4089 201° Southwest 266 306 9,600 -148 Climbing Seattle Center
Fri 04:06:32 PM 43.4706 -124.4328 195° South 251 289 8,900 -344 Descending Seattle Center
Fri 04:07:33 PM 43.3856 -124.4650 195° South 257 296 8,900 49 Level Seattle Center
Fri 04:08:34 PM 43.3136 -124.4897 194° South 263 303 9,000 98 Climbing Seattle Center
Fri 04:09:35 PM 43.2408 -124.5178 196° South 267 307 9,100 49 Climbing Seattle Center
Fri 04:10:36 PM 43.1742 -124.5450 197° South 255 293 9,100 -98 Level Seattle Center
Fri 04:11:37 PM 43.1119 -124.5656 194° South 234 269 8,900 -98 Descending Seattle Center
Fri 04:12:39 PM 43.0506 -124.5853 193° South 232 267 8,900  Level Seattle Center
Fri 04:13:40 PM 42.9875 -124.6072 194° South 233 268 8,900 98 Level Seattle Center
Fri 04:14:41 PM 42.9206 -124.6311 195° South 241 277 9,100 148 Climbing Seattle Center
Fri 04:15:42 PM 42.8583 -124.6606 199° South 241 277 9,200  Climbing Seattle Center
Fri 04:16:43 PM 42.7986 -124.6969 204° Southwest 239 275 9,100 -49 Descending Seattle Center
Fri 04:17:44 PM 42.7433 -124.7361 207° Southwest 229 264 9,100 -49 Level Seattle Center
Fri 04:18:45 PM 42.7300 -124.7989 254° West 228 262 9,000 -98 Descending Seattle Center
Fri 04:19:46 PM 42.7908 -124.7897 North 220 253 8,900 49 Descending Seattle Center
Fri 04:20:47 PM 42.8528 -124.7856 North 219 252 9,100 197 Climbing Seattle Center
Fri 04:21:48 PM 42.9147 -124.7833 North 222 255 9,300 49 Climbing Seattle Center
Fri 04:22:50 PM 42.9764 -124.7639 13° North 223 257 9,200 -146 Descending Seattle Center
Fri 04:23:51 PM 43.0322 -124.7397 18° North 218 251 9,000 -148 Descending Seattle Center
Fri 04:24:52 PM 43.0897 -124.7350 North 212 244 8,900 -49 Descending Seattle Center
Fri 04:25:53 PM 43.1375 -124.7308 North 182 209 8,900 -49 Level Seattle Center
Fri 04:26:54 PM 43.1869 -124.7275 North 179 206 8,800  Descending Seattle Center
Fri 04:27:55 PM 43.2353 -124.7244 North 179 206 8,900 49 Climbing Seattle Center
Fri 04:28:57 PM 43.2842 -124.7192 North 178 205 8,900 488 Level Seattle Center
Fri 04:29:58 PM 43.3547 -124.7164 North 207 238 9,900 1,377 Climbing Seattle Center
Fri 04:30:59 PM 43.4289 -124.7111 North 243 280 11,700 2,066 Climbing Seattle Center
Fri 04:32:00 PM 43.5094 -124.7069 North 277 319 14,100 1,574 Climbing Seattle Center
Fri 04:33:01 PM 43.5967 -124.6964 North 305 351 14,900 393 Climbing Seattle Center
Fri 04:34:02 PM 43.6853 -124.6856 North 316 364 14,900  Level Seattle Center
Fri 04:35:04 PM 43.7711 -124.6708 North 315 362 14,900  Level Seattle Center
Fri 04:36:05 PM 43.8619 -124.6642 North 318 366 14,900 98 Level Seattle Center
Fri 04:37:06 PM 43.9503 -124.6544 North 318 366 15,100  Climbing Seattle Center
Fri 04:38:07 PM 44.0364 -124.6489 North 317 365 14,900 -49 Descending Seattle Center
Fri 04:39:09 PM 44.1144 -124.6414 North 294 338 15,000  Climbing Seattle Center
Fri 04:40:10 PM 44.2050 -124.6317 North 278 320 14,900 -98 Descending Seattle Center
Fri 04:41:11 PM 44.2764 -124.6214 North 266 306 14,800 -49 Descending Seattle Center
Fri 04:42:12 PM 44.3472 -124.6117 North 257 296 14,800  Level Seattle Center
Fri 04:43:13 PM 44.4097 -124.6050 North 239 275 14,800 -49 Level Seattle Center
Fri 04:44:15 PM 44.4697 -124.5969 North 223 257 14,700 -98 Descending Seattle Center
Fri 04:45:16 PM 44.5314 -124.5928 North 222 255 14,600 98 Descending Seattle Center
Fri 04:46:17 PM 44.5964 -124.5903 North 225 259 14,900 197 Climbing Seattle Center
Fri 04:47:18 PM 44.6656 -124.5900 360° North 240 276 15,000 148 Climbing Seattle Center
Fri 04:48:19 PM 44.7364 -124.5875 North 249 287 15,200 49 Climbing Seattle Center
Fri 04:49:21 PM 44.8075 -124.5858 North 250 288 15,100  Descending Seattle Center
Fri 04:50:22 PM 44.8811 -124.5794 North 257 296 15,200 49 Climbing Seattle Center
Fri 04:51:23 PM 44.9783 -124.5672 North 283 326 15,200 -146 Level Seattle Center
Fri 04:52:25 PM 45.0642 -124.5553 North 299 344 14,900 -98 Descending Seattle Center
Fri 04:53:26 PM 45.0783 -124.4500 79° East 318 366 15,000  Climbing Seattle Center
Fri 04:54:27 PM 45.0064 -124.4333 171° South 283 326 14,900 -49 Descending Seattle Center
Fri 04:55:28 PM 44.9433 -124.4322 179° South 240 276 14,900  Level Seattle Center
Fri 04:56:30 PM 44.8794 -124.4300 179° South 234 269 14,900  Level Seattle Center
Fri 04:57:31 PM 44.8144 -124.4294 180° South 234 269 14,900  Level Seattle Center
Fri 04:58:32 PM 44.7458 -124.4281 179° South 242 278 14,900  Level Seattle Center
Fri 04:59:34 PM 44.6800 -124.4275 180° South 241 277 14,900  Level Seattle Center
Fri 05:00:35 PM 44.5894 -124.4269 180° South 264 304 14,900 49 Level Seattle Center
Fri 05:01:36 PM 44.5181 -124.4275 180° South 271 312 15,000 49 Climbing Seattle Center
Fri 05:02:37 PM 44.4428 -124.4275 180° South 272 313 15,000  Level Seattle Center
Fri 05:03:39 PM 44.3678 -124.4264 179° South 271 312 15,000  Level Seattle Center
Fri 05:04:40 PM 44.2936 -124.4242 179° South 267 307 15,000  Level Seattle Center
Fri 05:05:41 PM 44.2014 -124.4231 180° South 277 319 15,000  Level Seattle Center
Fri 05:06:43 PM 44.1306 -124.4200 178° South 262 302 15,000  Level Seattle Center
Fri 05:07:44 PM 44.0686 -124.4181 179° South 228 262 15,000  Level Seattle Center
Fri 05:08:45 PM 44.0008 -124.4178 180° South 230 265 15,000  Level Seattle Center
Fri 05:09:46 PM 43.9294 -124.4183 180° South 249 287 15,000 49 Level Seattle Center
Fri 05:10:48 PM 43.8511 -124.4142 178° South 275 316 15,100  Climbing Seattle Center
Fri 05:11:49 PM 43.7775 -124.4133 180° South 261 300 15,000 -98 Descending Seattle Center
Fri 05:12:50 PM 43.6942 -124.4153 181° South 303 349 14,900 -49 Descending Seattle Center
Fri 05:13:52 PM 43.6100 -124.4628 202° Southwest 324 373 14,900  Level Seattle Center
Fri 05:14:53 PM 43.5269 -124.5067 201° Southwest 323 372 14,900  Level Seattle Center
Fri 05:15:54 PM 43.4433 -124.5528 202° Southwest 324 373 14,900  Level Seattle Center
Fri 05:16:55 PM 43.3594 -124.5994 202° Southwest 322 371 14,900  Level Seattle Center
Fri 05:17:57 PM 43.2778 -124.6456 202° Southwest 321 369 14,900  Level Seattle Center
Fri 05:18:58 PM 43.1794 -124.7014 202° Southwest 321 369 14,900 49 Level Seattle Center
Fri 05:19:59 PM 43.0967 -124.7486 203° Southwest 321 369 15,000 -98 Climbing Seattle Center
Fri 05:21:00 PM 43.0136 -124.7953 202° Southwest 322 371 14,700  Descending Seattle Center
Fri 05:22:01 PM 42.9347 -124.8431 204° Southwest 318 366 15,000 197 Climbing Seattle Center
Fri 05:23:02 PM 42.8567 -124.8883 203° Southwest 306 352 15,100 98 Climbing Seattle Center
Fri 05:24:04 PM 42.7786 -124.9381 205° Southwest 306 352 15,200 -49 Climbing Seattle Center
Fri 05:25:05 PM 42.7017 -124.9847 204° Southwest 306 352 15,000 -197 Descending Seattle Center
Fri 05:26:06 PM 42.6242 -125.0328 205° Southwest 306 352 14,800 -98 Descending Seattle Center
Fri 05:27:07 PM 42.5467 -125.0744 202° Southwest 305 351 14,800 -49 Level Seattle Center
Fri 05:28:08 PM 42.4708 -125.1144 201° Southwest 300 345 14,700 148 Descending Seattle Center
Fri 05:29:09 PM 42.3842 -125.1617 202° Southwest 286 329 15,100 244 Climbing Seattle Center
Fri 05:30:11 PM 42.3139 -125.2031 204° Southwest 281 323 15,200 -98 Climbing Seattle Center
Fri 05:31:12 PM 42.2503 -125.2511 209° Southwest 272 313 14,900 -148 Descending Seattle Center
Fri 05:32:13 PM 42.1931 -125.2961 210° Southwest 258 297 14,900 -98 Level Seattle Center
Fri 05:33:14 PM 42.1550 -125.3456 224° Southwest 249 287 14,700 -49 Descending Seattle Center
Fri 05:34:15 PM 42.2033 -125.3589 348° North 218 251 14,800 246 Climbing Seattle Center
Fri 05:35:16 PM 42.2594 -125.3383 15° North 208 239 15,200 246 Climbing Seattle Center
Fri 05:36:17 PM 42.3236 -125.3172 14° North 220 253 15,300 -49 Climbing Seattle Center
Fri 05:37:18 PM 42.3931 -125.3044 North 244 281 15,100 -148 Descending Seattle Center
Fri 05:38:19 PM 42.4675 -125.2897 North 262 302 15,000 -146 Descending Seattle Center
Fri 05:39:21 PM 42.5572 -125.2747 North 267 307 14,800 -49 Descending Seattle Center
Fri 05:40:22 PM 42.6353 -125.2664 North 273 314 14,900 -49 Climbing Seattle Center
Fri 05:41:23 PM 42.7178 -125.2558 North 288 331 14,700  Descending Seattle Center
Fri 05:42:24 PM 42.8036 -125.2494 North 302 348 14,900 246 Climbing Seattle Center
Fri 05:43:25 PM 42.8933 -125.2467 North 316 364 15,200  Climbing Seattle Center
Fri 05:44:26 PM 42.9853 -125.2425 North 327 376 14,900 -148 Descending Seattle Center
Fri 05:45:27 PM 43.0661 -125.2472 358° North 311 358 14,900 49 Level Seattle Center
Fri 05:46:28 PM 43.1314 -125.2356 North 259 298 15,000  Climbing Seattle Center
Fri 05:47:30 PM 43.1989 -125.2314 North 247 284 14,900 49 Descending Seattle Center
Fri 05:48:31 PM 43.2672 -125.2217 North 246 283 15,100 -49 Climbing Seattle Center
Fri 05:49:32 PM 43.3347 -125.2044 11° North 246 283 14,800 -49 Descending Seattle Center
Fri 05:50:33 PM 43.4028 -125.1836 13° North 248 285 15,000 98 Climbing Seattle Center
Fri 05:51:34 PM 43.4850 -125.1689 North 247 284 15,000 -49 Level Seattle Center
Fri 05:52:35 PM 43.5525 -125.1550 North 244 281 14,900 -49 Descending Seattle Center
Fri 05:53:36 PM 43.6219 -125.1447 North 245 282 14,900  Level Seattle Center
Fri 05:54:37 PM 43.6958 -125.1272 10° North 258 297 14,900 -49 Level Seattle Center
Fri 05:55:39 PM 43.7711 -125.1128 North 268 308 14,800 -634 Descending Seattle Center
Fri 05:56:40 PM 43.8389 -125.0989 North 261 300 13,600 -1,475 Descending Seattle Center
Fri 05:57:41 PM 43.8936 -125.0875 North 225 259 11,800 -1,770 Descending Seattle Center
Fri 05:58:42 PM 43.9503 -125.0750 North 212 244 10,000 -885 Descending Seattle Center
Fri 05:59:43 PM 44.0039 -125.0581 13° North 208 239 10,000  Level Seattle Center
Fri 06:00:44 PM 44.0558 -125.0428 12° North 199 229 10,000 344 Level Seattle Center
Fri 06:01:45 PM 44.1092 -125.0267 12° North 198 228 10,700 836 Climbing Seattle Center
Fri 06:02:46 PM 44.1783 -125.0131 North 199 229 11,700 1,122 Climbing Seattle Center
Fri 06:03:48 PM 44.2406 -125.0036 North 209 241 13,000 976 Climbing Seattle Center
Fri 06:04:49 PM 44.3083 -124.9906 North 226 260 13,700 984 Climbing Seattle Center
Fri 06:05:50 PM 44.3850 -124.9731 North 252 290 15,000 787 Climbing Seattle Center
Fri 06:06:51 PM 44.4608 -124.9478 13° North 269 310 15,300 148 Climbing Seattle Center
Fri 06:07:52 PM 44.5367 -124.9189 15° North 279 321 15,300 -1,033 Level Seattle Center
Fri 06:08:53 PM 44.6006 -124.8961 14° North 252 290 13,200 -1,918 Descending Seattle Center
Fri 06:09:54 PM 44.6631 -124.8744 14° North 239 275 11,400 -1,366 Descending Seattle Center
Fri 06:10:56 PM 44.7258 -124.8528 14° North 236 272 10,400 -195 Descending Seattle Center
Fri 06:11:57 PM 44.7883 -124.8317 13° North 231 266 11,000 590 Climbing Seattle Center
Fri 06:12:58 PM 44.8597 -124.8108 12° North 244 281 11,600 541 Climbing Seattle Center
Fri 06:13:59 PM 44.9322 -124.7950 North 253 291 12,100 295 Climbing Seattle Center
Fri 06:15:00 PM 45.0225 -124.7792 North 266 306 12,200 393 Climbing Seattle Center
Fri 06:16:01 PM 45.0978 -124.7714 North 266 306 12,900 443 Climbing Seattle Center
Fri 06:17:02 PM 45.1747 -124.7633 North 272 313 13,100 502 Climbing Seattle Center
Fri 06:22:59 PM 45.6571 -124.5840 41° Northeast 389 448 16,400 750 Climbing FlightAware ADS-B
Fri 06:24:46 PM 45.8038 -124.4015 41° Northeast 459 528 18,900 1,714 Climbing FlightAware ADS-B
Fri 06:25:26 PM 45.8902 -124.2933 41° Northeast 468 539 20,600 2,400 Climbing FlightAware ADS-B
Fri 06:25:29 PM 45.8990 -124.2820 1000° North 20,700 2,160 Climbing FlightAware ADS-B
Fri 06:25:51 PM 45.9354 -124.2370 41° Northeast 473 544 21,500 1,784 Climbing FlightAware ADS-B
Fri 06:26:06 PM 45.9516 -124.2164 41° Northeast 476 548 21,800 1,742 Climbing FlightAware ADS-B
Fri 06:26:22 PM 45.9854 -124.1740 41° Northeast 478 550 22,400 1,800 Climbing FlightAware ADS-B
Fri 06:26:46 PM 46.0118 -124.1408 41° Northeast 487 560 23,000 1,200 Climbing FlightAware ADS-B
Fri 06:26:52 PM 46.0363 -124.1100 41° Northeast 493 567 23,000  Level FlightAware ADS-B
Fri 06:27:22 PM 46.0887 -124.0440 41° Northeast 497 572 23,000  Level FlightAware ADS-B
Fri 06:27:26 PM 46.0863 -124.0469 41° Northeast 497 572 23,000  Level FlightAware ADS-B
Fri 06:27:52 PM 46.1408 -123.9780 41° Northeast 495 570 23,000  Level FlightAware ADS-B
Fri 06:28:06 PM 46.1494 -123.9666 41° Northeast 496 571 23,000  Level FlightAware ADS-B
Fri 06:28:23 PM 46.1928 -123.9120 41° Northeast 497 572 23,000  Level FlightAware ADS-B
Fri 06:28:46 PM 46.2276 -123.8673 42° Northeast 498 573 23,000  Level FlightAware ADS-B
Fri 06:28:54 PM 46.2459 -123.8440 41° Northeast 498 573 23,000  Level FlightAware ADS-B
Fri 06:29:24 PM 46.2987 -123.7770 42° Northeast 493 567 23,000  Level FlightAware ADS-B
Fri 06:29:26 PM 46.2987 -123.7766 42° Northeast 493 567 23,000  Level FlightAware ADS-B
Fri 06:29:55 PM 46.3503 -123.7110 42° Northeast 490 564 23,000  Level FlightAware ADS-B
Fri 06:30:06 PM 46.3477 -123.7140 42° Northeast 490 564 23,000  Level FlightAware ADS-B
Fri 06:30:25 PM 46.4018 -123.6450 42° Northeast 489 563 23,000 -1,347 Level FlightAware ADS-B
Fri 06:30:55 PM 46.4522 -123.5800 42° Northeast 484 557 21,900 -2,500 Descending FlightAware ADS-B
Fri 06:31:25 PM 46.5031 -123.5150 42° Northeast 483 556 20,500 -2,656 Descending FlightAware ADS-B
Fri 06:31:56 PM 46.5539 -123.4490 42° Northeast 475 547 19,200 -2,361 Descending FlightAware ADS-B
Fri 06:32:26 PM 46.6028 -123.3850 42° Northeast 464 534 18,100 -2,100 Descending FlightAware ADS-B
Fri 06:32:56 PM 46.6486 -123.3250 42° Northeast 423 487 17,100 -2,262 Descending FlightAware ADS-B
Fri 06:33:27 PM 46.6916 -123.2690 42° Northeast 409 471 15,800 -2,164 Descending FlightAware ADS-B
Fri 06:33:57 PM 46.7343 -123.2140 42° Northeast 401 461 14,900 -1,800 Descending FlightAware ADS-B
Fri 06:34:27 PM 46.7754 -123.1600 42° Northeast 392 451 14,000 -1,770 Descending FlightAware ADS-B
Fri 06:34:58 PM 46.8155 -123.1080 42° Northeast 381 438 13,100 -1,279 Descending FlightAware ADS-B
Fri 06:35:28 PM 46.8537 -123.0570 42° Northeast 361 415 12,700 -700 Descending FlightAware ADS-B
Fri 06:35:58 PM 46.8898 -123.0100 42° Northeast 338 389 12,400 -500 Descending FlightAware ADS-B
Fri 06:36:28 PM 46.9238 -122.9650 42° Northeast 317 365 12,200 -400 Descending FlightAware ADS-B
Fri 06:36:58 PM 46.9552 -122.9230 42° Northeast 300 345 12,000 -436 Descending FlightAware ADS-B
Fri 06:37:23 PM 46.9810 -122.8900 41° Northeast 295 339 11,800 -207 Descending FlightAware ADS-B
Fri 06:37:56 PM 47.0145 -122.8470 41° Northeast 298 343 11,800  Level FlightAware ADS-B
Fri 06:38:26 PM 47.0468 -122.8070 41° Northeast 297 342 11,800 -762 Level FlightAware ADS-B
Fri 06:38:59 PM 47.0802 -122.7640 41° Northeast 298 343 11,000 -1,524 Descending FlightAware ADS-B
Fri 06:39:29 PM 47.1113 -122.7240 41° Northeast 293 337 10,200 -1,733 Descending FlightAware ADS-B
Fri 06:39:44 PM 47.1267 -122.7040 41° Northeast 290 334 9,700 -1,935 Descending FlightAware ADS-B
Fri 06:40:00 PM 47.1418 -122.6850 41° Northeast 284 327 9,200 -1,800 Descending FlightAware ADS-B
Fri 06:40:14 PM 47.1557 -122.6670 41° Northeast 280 322 8,800 -1,655 Descending FlightAware ADS-B
Fri 06:40:29 PM 47.1703 -122.6480 41° Northeast 279 321 8,400 -1,800 Descending FlightAware ADS-B
Fri 06:40:44 PM 47.1852 -122.6290 41° Northeast 276 318 7,900 -1,935 Descending FlightAware ADS-B
Fri 06:41:00 PM 47.2001 -122.6100 41° Northeast 273 314 7,400 -1,875 Descending FlightAware ADS-B
Fri 06:41:16 PM 47.2150 -122.5910 41° Northeast 269 310 6,900 -1,935 Descending FlightAware ADS-B
Fri 06:41:31 PM 47.2297 -122.5720 42° Northeast 267 307 6,400 -2,063 Descending FlightAware ADS-B
Fri 06:41:48 PM 47.2453 -122.5520 42° Northeast 267 307 5,800 -2,200 Descending FlightAware ADS-B
Fri 06:42:01 PM 47.2569 -122.5370 40° Northeast 270 311 5,300 -1,929 Descending FlightAware ADS-B
Fri 06:42:16 PM 47.2724 -122.5190 38° Northeast 275 316 4,900 -968 Descending FlightAware ADS-B
Fri 06:42:32 PM 47.2885 -122.5010 37° Northeast 265 305 4,800 -188 Descending FlightAware ADS-B
Fri 06:42:48 PM 47.3032 -122.4840 38° Northeast 258 297 4,800  Level FlightAware ADS-B
Fri 06:43:03 PM 47.3176 -122.4680 37° Northeast 244 281 4,800  Level FlightAware ADS-B
Fri 06:43:12 PM 47.3253 -122.4600 37° Northeast 233 268 4,800 240 Level FlightAware ADS-B
Fri 06:43:28 PM 47.3381 -122.4460 38° Northeast 216 249 4,900  Climbing FlightAware ADS-B
Fri 06:43:43 PM 47.3495 -122.4320 38° Northeast 213 245 4,800 -214 Descending FlightAware ADS-B
Fri 06:43:56 PM 47.3600 -122.4210 38° Northeast 213 245 4,800  Level FlightAware ADS-B
Fri 06:44:09 PM 47.3699 -122.4090 38° Northeast 200 230 4,800  Level FlightAware ADS-B
Fri 06:44:22 PM 47.3793 -122.3990 38° Northeast 194 223 4,800  Level FlightAware ADS-B
Fri 06:44:26 PM 47.3819 -122.3950 43° Northeast 192 221 4,800  Level FlightAware ADS-B
Fri 06:44:30 PM 47.3838 -122.3920 52° Northeast 191 220 4,800  Level FlightAware ADS-B
Fri 06:44:33 PM 47.3853 -122.3880 60° Northeast 190 219 4,800  Level FlightAware ADS-B
Fri 06:44:37 PM 47.3865 -122.3840 70° East 190 219 4,800  Level FlightAware ADS-B
Fri 06:44:41 PM 47.3874 -122.3780 77° East 191 220 4,800  Level FlightAware ADS-B
Fri 06:44:45 PM 47.3880 -122.3730 81° East 192 221 4,800  Level FlightAware ADS-B
Fri 06:44:53 PM 47.3889 -122.3620 84° East 193 222 4,800 -273 Level FlightAware ADS-B
Fri 06:45:07 PM 47.3899 -122.3440 86° East 184 212 4,700 -1,034 Descending FlightAware ADS-B
Fri 06:45:22 PM 47.3907 -122.3250 87° East 183 211 4,300 -1,556 Descending FlightAware ADS-B
Fri 06:45:34 PM 47.3911 -122.3110 88° East 178 205 4,000 -1,059 Descending FlightAware ADS-B
Fri 06:45:39 PM 47.3911 -122.3050 90° East 178 205 4,000 -667 Level FlightAware ADS-B
Fri 06:45:43 PM 47.3909 -122.3000 94° East 179 206 3,900 -1,500 Descending FlightAware ADS-B
Fri 06:45:47 PM 47.3905 -122.2960 99° East 178 205 3,800 -1,200 Descending FlightAware ADS-B
Fri 06:45:53 PM 47.3895 -122.2890 103° East 178 205 3,700 -1,200 Descending FlightAware ADS-B
Fri 06:46:02 PM 47.3876 -122.2780 105° East 180 207 3,500 -1,059 Descending FlightAware ADS-B
Fri 06:46:10 PM 47.3856 -122.2680 107° East 183 211 3,400 -667 Descending FlightAware ADS-B
Fri 06:46:20 PM 47.3831 -122.2560 108° East 185 213 3,300 -240 Descending FlightAware ADS-B
Fri 06:46:35 PM 47.3789 -122.2380 109° East 185 213 3,300  Level FlightAware ADS-B
Fri 06:46:49 PM 47.3750 -122.2220 109° East 182 209 3,300  Level FlightAware ADS-B
Fri 06:46:53 PM 47.3740 -122.2170 106° East 181 208 3,300  Level FlightAware ADS-B
Fri 06:46:56 PM 47.3734 -122.2130 99° East 180 207 3,300  Level FlightAware ADS-B
Fri 06:47:00 PM 47.3733 -122.2080 91° East 180 207 3,300  Level FlightAware ADS-B
Fri 06:47:04 PM 47.3737 -122.2040 79° East 178 205 3,300  Level FlightAware ADS-B
Fri 06:47:08 PM 47.3749 -122.2000 66° East 178 205 3,300  Level FlightAware ADS-B
Fri 06:47:11 PM 47.3766 -122.1960 56° Northeast 177 204 3,300  Level FlightAware ADS-B
Fri 06:47:16 PM 47.3791 -122.1920 40° Northeast 173 199 3,300  Level FlightAware ADS-B
Fri 06:47:19 PM 47.3812 -122.1900 31° Northeast 171 197 3,300 -1,000 Level FlightAware ADS-B
Fri 06:47:22 PM 47.3836 -122.1890 21° North 171 197 3,200 -1,714 Descending FlightAware ADS-B
Fri 06:47:26 PM 47.3864 -122.1880 North 170 196 3,100 -1,714 Descending FlightAware ADS-B
Fri 06:47:29 PM 47.3887 -122.1880 North 169 194 3,000 -1,000 Descending FlightAware ADS-B
Fri 06:47:32 PM 47.3912 -122.1880 357° North 169 194 3,000 -1,000 Level FlightAware ADS-B
Fri 06:47:35 PM 47.3938 -122.1890 346° North 168 193 2,900 -1,714 Descending FlightAware ADS-B
Fri 06:47:39 PM 47.3966 -122.1900 339° North 168 193 2,800 -1,333 Descending FlightAware ADS-B
Fri 06:47:44 PM 47.3998 -122.1930 333° Northwest 166 191 2,700 -947 Descending FlightAware ADS-B
Fri 06:47:58 PM 47.4089 -122.2000 330° Northwest 163 188 2,500 -828 Descending FlightAware ADS-B
Fri 06:48:13 PM 47.4186 -122.2080 330° Northwest 159 183 2,300 -1,000 Descending FlightAware ADS-B
Fri 06:48:28 PM 47.4283 -122.2170 330° Northwest 158 182 2,000 -960 Descending FlightAware ADS-B
Fri 06:48:38 PM 47.4344 -122.2220 330° Northwest 160 184 1,900 -571 Descending FlightAware ADS-B
Fri 06:48:49 PM 47.4414 -122.2280 330° Northwest 158 182 1,800 -947 Descending FlightAware ADS-B
Fri 06:48:57 PM 47.4465 -122.2320 331° Northwest 156 180 1,600 -1,043 Descending FlightAware ADS-B
Fri 06:49:12 PM 47.4564 -122.2400 331° Northwest 157 181 1,400 -889 Descending FlightAware ADS-B
Fri 06:49:24 PM 47.4635 -122.2460 330° Northwest 158 182 1,200 -1,000 Descending FlightAware ADS-B
Fri 06:49:30 PM 47.4678 -122.2500 330° Northwest 157 181 1,100 -857 Descending FlightAware ADS-B
Fri 06:49:38 PM 47.4724 -122.2540 330° Northwest 156 180 1,000 -783 Descending FlightAware ADS-B
Fri 06:49:53 PM 47.4824 -122.2620 330° Northwest 158 182 800 -577 Descending FlightAware ADS-B
Fri 06:50:30 PM 47.5031 -122.2794 330° Northwest 157 181 500 -375 Descending Seattle Center
Fri 06:50:41 PM 47.5033 -122.2806 290° West 157 181 500 -333 Level Seattle Center
Fri 06:51:42 PM 47.5414 -122.3131 330° Northwest 155 178 100 -393 Descending Seattle Center
Fri 06:53:00 PM 47.5300 -122.3020 180° South  Level Estimated

Login

Don't have an account? Register now (free) for customized features, flight alerts, and more!